Time;durP1;ratioP1;P1;durP2;ratioP2;P2;SDS_P1;SDS_P2;PMS_P1;PMS_P2;Temp;Humidity;BMP_temperature;BMP_pressure;BME280_temperature;BME280_humidity;BME280_pressure;Samples;Min_cycle;Max_cycle;Signal;HPM_P1;HPM_P2
2022/10/08 00:01:11;;;;;;;14.57;4.10;;;;;;;;;;4841247;29;20070;-63
2022/10/08 00:03:39;;;;;;;12.45;3.70;;;;;;;;;;4834581;29;20078;-62
2022/10/08 00:06:15;;;;;;;10.13;3.42;;;;;;;;;;4839596;29;20041;-62
2022/10/08 00:08:46;;;;;;;12.02;4.20;;;;;;;;;;4829983;29;20125;-62
2022/10/08 00:11:15;;;;;;;15.95;4.35;;;;;;;;;;4839205;29;20480;-63
2022/10/08 00:13:42;;;;;;;14.32;3.50;;;;;;;;;;4820518;29;20046;-63
2022/10/08 00:16:13;;;;;;;11.95;3.42;;;;;;;;;;4821257;29;20511;-62
2022/10/08 00:18:39;;;;;;;12.35;3.83;;;;;;;;;;4822147;29;20050;-62
2022/10/08 00:21:13;;;;;;;9.27;3.40;;;;;;;;;;4830634;29;20498;-62
2022/10/08 00:23:39;;;;;;;9.43;3.13;;;;;;;;;;4824846;29;20046;-62
2022/10/08 00:26:06;;;;;;;8.00;2.88;;;;;;;;;;4833706;29;20048;-62
2022/10/08 00:28:35;;;;;;;14.25;3.53;;;;;;;;;;4835888;29;20042;-62
2022/10/08 00:31:08;;;;;;;14.02;3.63;;;;;;;;;;4821543;29;20135;-62
2022/10/08 00:33:37;;;;;;;11.80;3.55;;;;;;;;;;4822420;29;20034;-62
2022/10/08 00:36:06;;;;;;;10.60;3.75;;;;;;;;;;4825993;29;20049;-63
2022/10/08 00:38:31;;;;;;;11.57;3.47;;;;;;;;;;4829009;29;20030;-63
2022/10/08 00:40:58;;;;;;;11.40;3.28;;;;;;;;;;4831493;29;20031;-63
2022/10/08 00:43:43;;;;;;;11.35;3.25;;;;;;;;;;4822720;29;20065;-63
2022/10/08 00:46:40;;;;;;;13.85;3.60;;;;;;;;;;4818437;29;20137;-61
2022/10/08 00:49:11;;;;;;;9.00;2.90;;;;;;;;;;4819319;29;20046;-61
2022/10/08 00:51:41;;;;;;;16.83;3.55;;;;;;;;;;4820599;29;20042;-63
2022/10/08 00:54:06;;;;;;;11.35;3.25;;;;;;;;;;4823888;29;20453;-63
2022/10/08 00:56:36;;;;;;;14.98;3.50;;;;;;;;;;4838679;29;20050;-60
2022/10/08 00:59:02;;;;;;;10.93;3.38;;;;;;;;;;4833696;29;20042;-64
2022/10/08 01:01:30;;;;;;;11.13;3.58;;;;;;;;;;4836793;29;20042;-63
2022/10/08 01:04:00;;;;;;;12.25;3.53;;;;;;;;;;4827808;29;20049;-62
2022/10/08 01:06:28;;;;;;;14.93;3.60;;;;;;;;;;4825306;29;20046;-63
2022/10/08 01:09:12;;;;;;;10.52;3.08;;;;;;;;;;4837091;29;20105;-62
2022/10/08 01:11:53;;;;;;;11.57;3.10;;;;;;;;;;4822219;29;20066;-62
2022/10/08 01:14:27;;;;;;;;;;;;;;;;;;4825803;29;20133;-61
2022/10/08 01:17:06;;;;;;;10.13;3.17;;;;;;;;;;4834157;29;19923;-62
2022/10/08 01:19:53;;;;;;;12.98;3.38;;;;;;;;;;4830575;29;20066;-63
2022/10/08 01:22:40;;;;;;;8.10;2.97;;;;;;;;;;4834927;29;20121;-62
2022/10/08 01:25:44;;;;;;;9.35;3.50;;;;;;;;;;4837897;29;20403;-61
2022/10/08 01:28:19;;;;;;;17.35;3.72;;;;;;;;;;4810726;29;20078;-61
2022/10/08 01:30:55;;;;;;;11.30;3.47;;;;;;;;;;4832113;29;20109;-61
2022/10/08 01:33:26;;;;;;;10.80;2.65;;;;;;;;;;4842892;29;20265;-61
2022/10/08 01:35:56;;;;;;;10.80;3.22;;;;;;;;;;4831753;29;20377;-61
2022/10/08 01:38:36;;;;;;;10.73;3.33;;;;;;;;;;4824577;29;20035;-63
2022/10/08 01:41:07;;;;;;;11.73;3.15;;;;;;;;;;4825418;29;20496;-63
2022/10/08 01:43:36;;;;;;;10.50;3.58;;;;;;;;;;4820963;29;20081;-63
2022/10/08 01:46:10;;;;;;;10.27;3.33;;;;;;;;;;4826130;29;20116;-63
2022/10/08 01:48:39;;;;;;;9.38;3.30;;;;;;;;;;4841465;29;20030;-62
2022/10/08 01:51:13;;;;;;;16.40;3.20;;;;;;;;;;4835087;29;20037;-63
2022/10/08 01:53:43;;;;;;;12.18;2.83;;;;;;;;;;4840962;29;20039;-62
2022/10/08 01:56:13;;;;;;;9.20;3.22;;;;;;;;;;4832329;29;20037;-62
2022/10/08 01:59:00;;;;;;;10.20;3.22;;;;;;;;;;4838411;29;20133;-62
2022/10/08 02:01:37;;;;;;;10.88;3.33;;;;;;;;;;4825292;29;20089;-61
2022/10/08 02:06:54;;;;;;;7.95;2.75;;;;;;;;;;4828339;29;20102;-62
2022/10/08 02:09:21;;;;;;;12.40;3.30;;;;;;;;;;4822940;29;20444;-62
2022/10/08 02:11:46;;;;;;;8.52;3.13;;;;;;;;;;4826697;29;20498;-62
2022/10/08 02:14:11;;;;;;;10.63;3.22;;;;;;;;;;4832011;29;20038;-61
2022/10/08 02:16:46;;;;;;;9.82;3.03;;;;;;;;;;4837483;29;20050;-62
2022/10/08 02:19:22;;;;;;;15.60;3.38;;;;;;;;;;4823437;29;20039;-62
2022/10/08 02:21:51;;;;;;;6.03;2.50;;;;;;;;;;4840803;29;20045;-61
2022/10/08 02:24:21;;;;;;;12.48;3.10;;;;;;;;;;4833092;29;20065;-63
2022/10/08 02:26:51;;;;;;;11.13;2.88;;;;;;;;;;4824643;29;20452;-63
2022/10/08 02:29:27;;;;;;;7.28;2.47;;;;;;;;;;4828663;29;20559;-62
2022/10/08 02:31:59;;;;;;;9.48;2.70;;;;;;;;;;4836351;29;20062;-63
2022/10/08 02:34:34;;;;;;;12.18;2.80;;;;;;;;;;4821876;29;20038;-62
2022/10/08 02:37:09;;;;;;;9.05;2.38;;;;;;;;;;4837406;29;20079;-62
2022/10/08 02:39:38;;;;;;;10.27;3.38;;;;;;;;;;4837180;29;20421;-62
2022/10/08 02:42:09;;;;;;;9.23;2.58;;;;;;;;;;4828237;29;20042;-63
2022/10/08 02:44:41;;;;;;;12.80;2.90;;;;;;;;;;4826297;29;20042;-62
2022/10/08 02:47:10;;;;;;;9.35;2.55;;;;;;;;;;4828338;29;20041;-63
2022/10/08 02:49:44;;;;;;;10.13;2.90;;;;;;;;;;4828867;29;20034;-62
2022/10/08 02:52:10;;;;;;;8.77;2.60;;;;;;;;;;4830444;29;20808;-63
2022/10/08 02:54:41;;;;;;;10.80;2.90;;;;;;;;;;4825697;29;20073;-63
2022/10/08 02:57:45;;;;;;;12.30;2.92;;;;;;;;;;4839588;29;20045;-64
2022/10/08 03:00:11;;;;;;;9.35;2.70;;;;;;;;;;4749027;30;20425;-63
2022/10/08 03:02:42;;;;;;;9.10;2.53;;;;;;;;;;4811319;29;20145;-63
2022/10/08 03:05:16;;;;;;;7.85;3.00;;;;;;;;;;4832806;29;20434;-62
2022/10/08 03:07:43;;;;;;;10.07;2.90;;;;;;;;;;4831403;29;20038;-62
2022/10/08 03:10:09;;;;;;;9.10;2.30;;;;;;;;;;4835454;29;20038;-64
2022/10/08 03:12:35;;;;;;;9.00;2.72;;;;;;;;;;4823632;29;20548;-63
2022/10/08 03:15:00;;;;;;;10.80;3.20;;;;;;;;;;4806516;29;20050;-61
2022/10/08 03:17:37;;;;;;;10.95;2.92;;;;;;;;;;4822537;29;20237;-61
2022/10/08 03:20:05;;;;;;;11.38;3.20;;;;;;;;;;4833504;29;20046;-62
2022/10/08 03:22:32;;;;;;;11.73;3.30;;;;;;;;;;4840774;29;20049;-62
2022/10/08 03:24:58;;;;;;;14.82;3.50;;;;;;;;;;4819681;29;20034;-62
2022/10/08 03:27:23;;;;;;;18.35;3.80;;;;;;;;;;4822975;29;20026;-61
2022/10/08 03:29:49;;;;;;;11.60;3.55;;;;;;;;;;4822757;29;20391;-60
2022/10/08 03:32:14;;;;;;;12.07;4.30;;;;;;;;;;4836136;29;20548;-60
2022/10/08 03:34:40;;;;;;;10.80;3.85;;;;;;;;;;4824968;29;20064;-62
2022/10/08 03:37:05;;;;;;;17.45;5.25;;;;;;;;;;4825900;29;20372;-63
2022/10/08 03:39:31;;;;;;;13.57;5.00;;;;;;;;;;4824414;29;20055;-63
2022/10/08 03:41:56;;;;;;;14.77;5.15;;;;;;;;;;4823899;29;20061;-63
2022/10/08 03:44:21;;;;;;;18.48;5.82;;;;;;;;;;4818503;29;20137;-64
2022/10/08 03:46:47;;;;;;;18.33;5.90;;;;;;;;;;4823010;29;20039;-62
2022/10/08 03:49:12;;;;;;;17.55;5.60;;;;;;;;;;4829543;29;20360;-62
2022/10/08 03:51:38;;;;;;;16.60;6.32;;;;;;;;;;4840592;29;20067;-61
2022/10/08 03:54:03;;;;;;;13.02;6.25;;;;;;;;;;4826105;29;20132;-61
2022/10/08 03:56:29;;;;;;;18.00;6.00;;;;;;;;;;4826429;29;20037;-61
2022/10/08 03:58:56;;;;;;;21.83;7.38;;;;;;;;;;4832208;29;20045;-61
2022/10/08 04:01:22;;;;;;;18.92;7.38;;;;;;;;;;4837322;29;20093;-61
2022/10/08 04:03:48;;;;;;;23.60;8.57;;;;;;;;;;4830682;29;20049;-61
2022/10/08 04:06:14;;;;;;;20.70;7.82;;;;;;;;;;4821222;29;20041;-61
2022/10/08 04:08:39;;;;;;;16.70;7.72;;;;;;;;;;4823677;29;20038;-61
2022/10/08 04:11:08;;;;;;;18.20;8.15;;;;;;;;;;4834018;29;20038;-62
2022/10/08 04:13:35;;;;;;;22.45;8.85;;;;;;;;;;4805079;29;20053;-61
2022/10/08 04:16:06;;;;;;;21.90;8.93;;;;;;;;;;4834460;29;20038;-61
2022/10/08 04:18:32;;;;;;;22.00;9.95;;;;;;;;;;4840655;29;20030;-61
2022/10/08 04:20:59;;;;;;;20.75;9.90;;;;;;;;;;4837361;29;20040;-61
2022/10/08 04:23:25;;;;;;;22.45;10.10;;;;;;;;;;4822251;29;20072;-62
2022/10/08 04:25:51;;;;;;;25.92;10.90;;;;;;;;;;4833322;29;20042;-61
2022/10/08 04:28:17;;;;;;;29.10;11.88;;;;;;;;;;4828758;29;20045;-63
2022/10/08 04:30:42;;;;;;;24.02;11.35;;;;;;;;;;4832596;29;20045;-62
2022/10/08 04:33:08;;;;;;;23.00;11.35;;;;;;;;;;4828085;29;20053;-63
2022/10/08 04:35:37;;;;;;;26.33;12.15;;;;;;;;;;4827576;29;20498;-63
2022/10/08 04:38:02;;;;;;;29.98;11.80;;;;;;;;;;4839357;29;20499;-62
2022/10/08 04:40:28;;;;;;;30.30;12.00;;;;;;;;;;4829253;29;20075;-62
2022/10/08 04:42:53;;;;;;;25.85;10.82;;;;;;;;;;4840226;29;20413;-62
2022/10/08 04:45:18;;;;;;;26.65;11.25;;;;;;;;;;4810206;29;20091;-62
2022/10/08 04:47:44;;;;;;;24.08;11.25;;;;;;;;;;4822127;29;20662;-63
2022/10/08 04:50:09;;;;;;;25.67;11.50;;;;;;;;;;4826572;29;20085;-63
2022/10/08 04:52:35;;;;;;;24.33;11.70;;;;;;;;;;4837703;29;20491;-61
2022/10/08 04:55:00;;;;;;;31.15;11.10;;;;;;;;;;4837931;29;20356;-61
2022/10/08 04:57:25;;;;;;;22.55;10.70;;;;;;;;;;4835807;29;21284;-62
2022/10/08 04:59:51;;;;;;;23.00;10.40;;;;;;;;;;4831241;29;20086;-62
2022/10/08 05:02:16;;;;;;;23.02;10.05;;;;;;;;;;4816177;29;20050;-62
2022/10/08 05:04:42;;;;;;;24.20;9.45;;;;;;;;;;4819256;29;20145;-61
2022/10/08 05:07:07;;;;;;;21.38;9.60;;;;;;;;;;4836548;29;20479;-62
2022/10/08 05:09:32;;;;;;;25.55;9.80;;;;;;;;;;4834579;29;20041;-62
2022/10/08 05:11:58;;;;;;;27.58;9.63;;;;;;;;;;4831265;29;20034;-61
2022/10/08 05:14:23;;;;;;;27.02;9.25;;;;;;;;;;4837014;29;20041;-62
2022/10/08 05:16:48;;;;;;;22.02;9.15;;;;;;;;;;4829625;29;20042;-61
2022/10/08 05:19:14;;;;;;;28.60;9.32;;;;;;;;;;4823611;29;20034;-64
2022/10/08 05:21:39;;;;;;;23.65;8.70;;;;;;;;;;4822569;29;20070;-62
2022/10/08 05:24:08;;;;;;;23.83;9.57;;;;;;;;;;4839572;29;20038;-63
2022/10/08 05:26:35;;;;;;;26.33;9.02;;;;;;;;;;4836153;29;20046;-62
2022/10/08 05:29:01;;;;;;;27.95;9.90;;;;;;;;;;4840634;29;20030;-62
2022/10/08 05:31:28;;;;;;;28.00;10.07;;;;;;;;;;4822529;29;20491;-62
2022/10/08 05:33:54;;;;;;;23.85;9.90;;;;;;;;;;4830646;29;20038;-66
2022/10/08 05:36:31;;;;;;;22.98;9.27;;;;;;;;;;4821878;29;20453;-65
2022/10/08 05:38:58;;;;;;;24.48;10.13;;;;;;;;;;4822075;29;20049;-66
2022/10/08 05:41:33;;;;;;;25.63;10.23;;;;;;;;;;4820498;29;20118;-66
2022/10/08 05:44:02;;;;;;;23.80;10.48;;;;;;;;;;4822535;29;20047;-65
2022/10/08 05:46:29;;;;;;;26.13;10.02;;;;;;;;;;4821223;29;20050;-66
2022/10/08 05:48:57;;;;;;;23.90;9.98;;;;;;;;;;4821791;29;20440;-65
2022/10/08 05:51:23;;;;;;;26.50;10.88;;;;;;;;;;4820853;29;20304;-65
2022/10/08 05:53:50;;;;;;;26.10;9.77;;;;;;;;;;4823495;29;20384;-64
2022/10/08 05:56:17;;;;;;;22.33;10.20;;;;;;;;;;4819938;29;20121;-67
2022/10/08 05:58:43;;;;;;;28.83;10.65;;;;;;;;;;4821530;29;20042;-64
2022/10/08 06:01:14;;;;;;;27.83;9.93;;;;;;;;;;4821407;29;20105;-64
2022/10/08 06:03:40;;;;;;;20.80;10.18;;;;;;;;;;4805015;29;20094;-64
2022/10/08 06:06:07;;;;;;;24.77;10.15;;;;;;;;;;4821739;29;20050;-64
2022/10/08 06:08:34;;;;;;;24.25;10.55;;;;;;;;;;4820497;29;20847;-64
2022/10/08 06:10:59;;;;;;;25.92;9.80;;;;;;;;;;4822243;29;20046;-63
2022/10/08 06:13:25;;;;;;;30.02;10.75;;;;;;;;;;4822942;29;20066;-68
2022/10/08 06:16:10;;;;;;;22.48;10.07;;;;;;;;;;4824616;29;20476;-68
2022/10/08 06:18:38;;;;;;;21.42;9.43;;;;;;;;;;4824311;29;20054;-69
2022/10/08 06:21:10;;;;;;;23.90;9.90;;;;;;;;;;4821924;29;20121;-68
2022/10/08 06:23:37;;;;;;;27.25;10.50;;;;;;;;;;4823980;29;20073;-68
2022/10/08 06:26:08;;;;;;;24.38;10.68;;;;;;;;;;4824788;29;20053;-68
2022/10/08 06:28:35;;;;;;;22.15;9.85;;;;;;;;;;4791320;29;20043;-69
2022/10/08 06:31:01;;;;;;;26.95;10.50;;;;;;;;;;4821921;29;20046;-69
2022/10/08 06:33:26;;;;;;;23.33;10.77;;;;;;;;;;4822119;29;20396;-69
2022/10/08 06:35:52;;;;;;;23.08;10.05;;;;;;;;;;4822155;29;20042;-71
2022/10/08 06:38:18;;;;;;;24.17;10.65;;;;;;;;;;4826206;29;20046;-70
2022/10/08 06:40:43;;;;;;;22.55;12.20;;;;;;;;;;4822719;29;20038;-68
2022/10/08 06:43:13;;;;;;;27.15;11.93;;;;;;;;;;4823096;29;20384;-67
2022/10/08 06:45:40;;;;;;;23.88;10.90;;;;;;;;;;4822199;29;20047;-67
2022/10/08 06:48:06;;;;;;;21.90;11.23;;;;;;;;;;4823201;29;20046;-68
2022/10/08 06:50:32;;;;;;;24.85;12.25;;;;;;;;;;4822371;29;20041;-67
2022/10/08 06:52:57;;;;;;;24.50;11.32;;;;;;;;;;4805839;29;20038;-68
2022/10/08 06:55:23;;;;;;;24.33;11.57;;;;;;;;;;4823801;29;20081;-68
2022/10/08 06:57:48;;;;;;;22.23;10.73;;;;;;;;;;4823347;29;20042;-67
2022/10/08 07:00:14;;;;;;;24.08;11.10;;;;;;;;;;4824291;29;20042;-67
2022/10/08 07:02:39;;;;;;;21.42;11.45;;;;;;;;;;4821240;29;20480;-67
2022/10/08 07:05:05;;;;;;;21.00;10.45;;;;;;;;;;4823370;29;20043;-71
2022/10/08 07:07:31;;;;;;;21.55;11.05;;;;;;;;;;4821865;29;20034;-68
2022/10/08 07:09:56;;;;;;;20.52;10.50;;;;;;;;;;4822683;29;20048;-69
2022/10/08 07:12:21;;;;;;;20.85;9.77;;;;;;;;;;4822121;29;20220;-68
2022/10/08 07:14:47;;;;;;;26.25;10.20;;;;;;;;;;4822518;29;20341;-67
2022/10/08 07:17:12;;;;;;;21.67;9.68;;;;;;;;;;4821673;29;20050;-70
2022/10/08 07:19:37;;;;;;;20.92;10.00;;;;;;;;;;4821123;29;20525;-70
2022/10/08 07:22:03;;;;;;;18.50;9.73;;;;;;;;;;4821350;29;20031;-69
2022/10/08 07:24:28;;;;;;;23.85;9.80;;;;;;;;;;4822938;29;20030;-68
2022/10/08 07:26:53;;;;;;;23.58;11.18;;;;;;;;;;4821913;29;20125;-69
2022/10/08 07:29:19;;;;;;;24.40;12.35;;;;;;;;;;4822239;29;20038;-69
2022/10/08 07:31:44;;;;;;;23.77;11.40;;;;;;;;;;4821027;29;20071;-69
2022/10/08 07:34:11;;;;;;;24.63;13.52;;;;;;;;;;4822026;29;20117;-69
2022/10/08 07:36:38;;;;;;;27.73;13.93;;;;;;;;;;4820781;29;20044;-69
2022/10/08 07:39:07;;;;;;;26.73;13.15;;;;;;;;;;4822140;29;20438;-70
2022/10/08 07:41:33;;;;;;;18.98;10.27;;;;;;;;;;4818264;29;20095;-69
2022/10/08 07:44:00;;;;;;;18.00;11.23;;;;;;;;;;4822874;29;20070;-69
2022/10/08 07:46:31;;;;;;;23.75;13.93;;;;;;;;;;4821467;29;20495;-70
2022/10/08 07:49:03;;;;;;;;;;;;;;;;;;4823370;29;20048;-69
2022/10/08 07:51:30;;;;;;;22.02;13.70;;;;;;;;;;4820604;29;19920;-69
2022/10/08 07:53:56;;;;;;;26.98;13.45;;;;;;;;;;4822974;29;20034;-68
2022/10/08 07:56:22;;;;;;;21.13;13.48;;;;;;;;;;4820515;29;20072;-69
2022/10/08 07:58:48;;;;;;;25.50;14.57;;;;;;;;;;4823673;29;20464;-70
2022/10/08 08:01:27;;;;;;;26.15;13.80;;;;;;;;;;4820746;29;20034;-70
2022/10/08 08:03:54;;;;;;;26.55;14.18;;;;;;;;;;4822403;29;20084;-71
2022/10/08 08:06:20;;;;;;;26.50;14.18;;;;;;;;;;4820999;29;20042;-70
2022/10/08 08:08:46;;;;;;;27.05;13.93;;;;;;;;;;4822028;29;20480;-70
2022/10/08 08:11:14;;;;;;;26.10;13.95;;;;;;;;;;4824810;29;20065;-71
2022/10/08 08:13:40;;;;;;;24.20;13.52;;;;;;;;;;4825893;29;20372;-71
2022/10/08 08:16:12;;;;;;;23.73;13.02;;;;;;;;;;4820106;29;20395;-68
2022/10/08 08:18:40;;;;;;;24.58;13.52;;;;;;;;;;4820806;29;20077;-68
2022/10/08 08:21:17;;;;;;;31.23;13.20;;;;;;;;;;4821373;29;20070;-69
2022/10/08 08:23:46;;;;;;;27.63;14.20;;;;;;;;;;4821875;29;20538;-70
2022/10/08 08:26:21;;;;;;;25.10;14.23;;;;;;;;;;4820781;29;20060;-69
2022/10/08 08:29:00;;;;;;;27.52;13.38;;;;;;;;;;4825357;29;20522;-68
2022/10/08 08:31:28;;;;;;;25.58;12.40;;;;;;;;;;4829980;29;20061;-68
2022/10/08 08:33:55;;;;;;;25.23;13.05;;;;;;;;;;4820927;29;20098;-68
2022/10/08 08:36:33;;;;;;;24.08;13.43;;;;;;;;;;4832951;29;20077;-69
2022/10/08 08:38:59;;;;;;;24.67;12.90;;;;;;;;;;4822153;29;20034;-69
2022/10/08 08:41:31;;;;;;;26.25;12.00;;;;;;;;;;4818381;29;20395;-69
2022/10/08 08:44:01;;;;;;;24.67;12.15;;;;;;;;;;4821644;29;20038;-68
2022/10/08 08:46:31;;;;;;;24.20;12.23;;;;;;;;;;4821204;29;20461;-68
2022/10/08 08:49:02;;;;;;;19.35;11.25;;;;;;;;;;4827423;29;20069;-68
2022/10/08 08:51:28;;;;;;;20.90;10.65;;;;;;;;;;4825316;29;20094;-68
2022/10/08 08:53:53;;;;;;;19.63;10.27;;;;;;;;;;4821139;29;20031;-68
2022/10/08 08:56:22;;;;;;;22.98;10.52;;;;;;;;;;4820026;29;20046;-67
2022/10/08 08:58:57;;;;;;;20.40;10.63;;;;;;;;;;4820223;29;20121;-68
2022/10/08 09:01:41;;;;;;;17.73;9.63;;;;;;;;;;4820418;29;20043;-69
2022/10/08 09:04:26;;;;;;;17.27;8.65;;;;;;;;;;4821356;29;20078;-69
2022/10/08 09:06:52;;;;;;;19.58;9.57;;;;;;;;;;4821005;29;20306;-69
2022/10/08 09:09:37;;;;;;;16.70;8.75;;;;;;;;;;4818731;29;20034;-68
2022/10/08 09:12:13;;;;;;;14.57;7.20;;;;;;;;;;4819597;29;20038;-68
2022/10/08 09:14:42;;;;;;;19.58;8.52;;;;;;;;;;4820530;29;20038;-70
2022/10/08 09:17:14;;;;;;;16.60;7.82;;;;;;;;;;4820686;29;20039;-68
2022/10/08 09:19:40;;;;;;;19.15;8.15;;;;;;;;;;4820702;29;20038;-70
2022/10/08 09:22:19;;;;;;;17.08;7.75;;;;;;;;;;4820477;29;20041;-70
2022/10/08 09:24:48;;;;;;;15.00;8.38;;;;;;;;;;4820038;29;20073;-69
2022/10/08 09:27:14;;;;;;;17.95;8.32;;;;;;;;;;4826644;29;20053;-68
2022/10/08 09:29:40;;;;;;;18.40;7.47;;;;;;;;;;4821751;29;20038;-67
2022/10/08 09:32:19;;;;;;;15.13;6.38;;;;;;;;;;4820036;29;20043;-67
2022/10/08 09:34:47;;;;;;;15.23;6.15;;;;;;;;;;4804356;29;20377;-67
2022/10/08 09:37:21;;;;;;;11.68;6.03;;;;;;;;;;4817347;29;20074;-67
2022/10/08 09:40:24;;;;;;;15.60;5.47;;;;;;;;;;4822456;29;20110;-66
2022/10/08 09:43:21;;;;;;;11.38;5.78;;;;;;;;;;4762783;30;20039;-67
2022/10/08 09:45:48;;;;;;;11.57;5.85;;;;;;;;;;4782523;29;20084;-66
2022/10/08 09:48:16;;;;;;;13.15;6.00;;;;;;;;;;4825277;29;20042;-66
2022/10/08 09:50:49;;;;;;;12.38;5.38;;;;;;;;;;4820511;29;20393;-66
2022/10/08 09:53:15;;;;;;;13.23;6.00;;;;;;;;;;4825285;29;20034;-66
2022/10/08 09:55:48;;;;;;;12.82;5.70;;;;;;;;;;4825093;29;20042;-66
2022/10/08 09:58:17;;;;;;;8.85;4.20;;;;;;;;;;4825850;29;20050;-65
2022/10/08 10:00:42;;;;;;;12.00;5.18;;;;;;;;;;4822427;29;20042;-65
2022/10/08 10:03:18;;;;;;;8.73;4.07;;;;;;;;;;4825379;29;20461;-64
2022/10/08 10:05:50;;;;;;;11.70;4.65;;;;;;;;;;4823674;29;20046;-64
2022/10/08 10:08:48;;;;;;;10.10;4.50;;;;;;;;;;4825254;29;20034;-64
2022/10/08 10:11:22;;;;;;;10.02;3.80;;;;;;;;;;4817671;29;20065;-62
2022/10/08 10:13:49;;;;;;;10.25;3.83;;;;;;;;;;4809864;29;20046;-62
2022/10/08 10:16:25;;;;;;;11.05;4.00;;;;;;;;;;4824148;29;20042;-67
2022/10/08 10:18:58;;;;;;;6.88;3.28;;;;;;;;;;4822741;29;20042;-65
2022/10/08 10:21:49;;;;;;;8.32;3.22;;;;;;;;;;4821927;29;20039;-65
2022/10/08 10:24:52;;;;;;;6.97;3.03;;;;;;;;;;4795364;29;20054;-63
2022/10/08 10:27:30;;;;;;;8.73;3.25;;;;;;;;;;4823769;29;20451;-63
2022/10/08 10:30:05;;;;;;;7.60;2.90;;;;;;;;;;4823388;29;20117;-64
2022/10/08 10:32:45;;;;;;;6.85;2.45;;;;;;;;;;4821878;29;20073;-64
2022/10/08 10:35:22;;;;;;;5.32;2.20;;;;;;;;;;4823142;29;20026;-65
2022/10/08 10:37:52;;;;;;;6.22;2.30;;;;;;;;;;4822656;29;20066;-66
2022/10/08 10:40:40;;;;;;;7.18;2.58;;;;;;;;;;4822809;29;20905;-66
2022/10/08 10:43:16;;;;;;;9.27;1.98;;;;;;;;;;4823427;29;20064;-66
2022/10/08 10:45:47;;;;;;;8.07;2.30;;;;;;;;;;4819366;29;20034;-65
2022/10/08 10:48:13;;;;;;;6.03;2.45;;;;;;;;;;4822942;29;20042;-66
2022/10/08 10:51:00;;;;;;;7.80;2.50;;;;;;;;;;4823293;29;20114;-66
2022/10/08 10:53:48;;;;;;;4.65;2.15;;;;;;;;;;4822081;29;20128;-66
2022/10/08 10:56:17;;;;;;;4.47;1.95;;;;;;;;;;4825243;29;20042;-65
2022/10/08 10:59:17;;;;;;;6.20;2.25;;;;;;;;;;4823747;29;20307;-66
2022/10/08 11:01:55;;;;;;;5.05;2.00;;;;;;;;;;4821715;29;20641;-66
2022/10/08 11:04:36;;;;;;;5.22;2.10;;;;;;;;;;4823441;29;20042;-66
2022/10/08 11:07:22;;;;;;;8.45;2.50;;;;;;;;;;4824679;29;20061;-65
2022/10/08 11:09:57;;;;;;;8.05;2.30;;;;;;;;;;4824240;29;20050;-65
2022/10/08 11:12:33;;;;;;;6.40;2.05;;;;;;;;;;4823834;29;20087;-65
2022/10/08 11:15:22;;;;;;;6.85;2.20;;;;;;;;;;4824909;29;20102;-67
2022/10/08 11:18:11;;;;;;;6.38;2.28;;;;;;;;;;4823064;29;20035;-64
2022/10/08 11:21:15;;;;;;;5.45;2.10;;;;;;;;;;4823175;29;20487;-65
2022/10/08 11:23:59;;;;;;;7.53;1.60;;;;;;;;;;4805615;29;20403;-65
2022/10/08 11:26:48;;;;;;;5.57;2.08;;;;;;;;;;4821432;29;20046;-65
2022/10/08 11:29:49;;;;;;;4.75;1.75;;;;;;;;;;4817755;29;20038;-64
2022/10/08 11:32:16;;;;;;;3.35;1.40;;;;;;;;;;4811599;29;20051;-64
2022/10/08 11:35:05;;;;;;;4.25;1.50;;;;;;;;;;4823784;29;20037;-65
2022/10/08 11:37:38;;;;;;;6.30;1.75;;;;;;;;;;4814440;29;20464;-65
2022/10/08 11:40:23;;;;;;;5.57;1.48;;;;;;;;;;4821836;29;20042;-66
2022/10/08 11:43:03;;;;;;;8.00;1.52;;;;;;;;;;4822372;29;20038;-64
2022/10/08 11:45:33;;;;;;;3.83;1.58;;;;;;;;;;4822156;29;20070;-64
2022/10/08 11:48:00;;;;;;;7.97;2.00;;;;;;;;;;4821546;29;20448;-65
2022/10/08 11:50:36;;;;;;;5.05;1.80;;;;;;;;;;4821024;29;20062;-65
2022/10/08 11:53:13;;;;;;;4.68;1.58;;;;;;;;;;4822928;29;20049;-65
2022/10/08 11:55:47;;;;;;;6.28;1.50;;;;;;;;;;4822580;29;20039;-65
2022/10/08 11:58:28;;;;;;;2.47;1.20;;;;;;;;;;4823943;29;20065;-65
2022/10/08 12:01:03;;;;;;;4.80;1.30;;;;;;;;;;4823359;29;20543;-65
2022/10/08 12:03:32;;;;;;;6.00;1.50;;;;;;;;;;4822860;29;20054;-65
2022/10/08 12:06:25;;;;;;;5.13;1.40;;;;;;;;;;4822447;29;20429;-65
2022/10/08 12:08:53;;;;;;;3.75;1.20;;;;;;;;;;4817068;29;20042;-65
2022/10/08 12:11:31;;;;;;;3.28;1.42;;;;;;;;;;4823654;29;20039;-65
2022/10/08 12:14:12;;;;;;;6.38;1.60;;;;;;;;;;4823714;29;20030;-65
2022/10/08 12:16:46;;;;;;;6.32;1.50;;;;;;;;;;4822956;29;20061;-65
2022/10/08 12:19:34;;;;;;;4.15;1.45;;;;;;;;;;4806805;29;20120;-65
2022/10/08 12:22:00;;;;;;;3.03;1.30;;;;;;;;;;4821971;29;20557;-65
2022/10/08 12:24:37;;;;;;;2.75;1.27;;;;;;;;;;4820030;29;20043;-67
2022/10/08 12:27:15;;;;;;;4.63;1.20;;;;;;;;;;4806763;29;20117;-65
2022/10/08 12:30:02;;;;;;;5.82;1.15;;;;;;;;;;4821568;29;20037;-66
2022/10/08 12:32:50;;;;;;;4.43;1.20;;;;;;;;;;4820133;29;20039;-67
2022/10/08 12:35:26;;;;;;;5.20;1.25;;;;;;;;;;4821680;29;20033;-66
2022/10/08 12:38:13;;;;;;;3.58;0.80;;;;;;;;;;4821168;29;20042;-66
2022/10/08 12:41:26;;;;;;;4.15;1.25;;;;;;;;;;4823759;29;20078;-66
2022/10/08 12:43:56;;;;;;;2.67;1.00;;;;;;;;;;4814434;29;20046;-65
2022/10/08 12:46:33;;;;;;;4.05;1.10;;;;;;;;;;4821415;29;20037;-66
2022/10/08 12:49:10;;;;;;;4.70;1.40;;;;;;;;;;4821540;29;20038;-66
2022/10/08 12:52:11;;;;;;;3.22;1.20;;;;;;;;;;4819548;29;20042;-66
2022/10/08 12:54:58;;;;;;;3.42;1.17;;;;;;;;;;4815345;29;20862;-66
2022/10/08 12:57:36;;;;;;;3.90;1.20;;;;;;;;;;4828199;29;20077;-66
2022/10/08 13:00:27;;;;;;;7.93;1.48;;;;;;;;;;4819795;29;20072;-65
2022/10/08 13:03:04;;;;;;;9.82;1.55;;;;;;;;;;4820791;29;20420;-65
2022/10/08 13:05:32;;;;;;;4.55;1.30;;;;;;;;;;4819767;29;20049;-65
2022/10/08 13:07:58;;;;;;;6.75;1.88;;;;;;;;;;4821198;29;20048;-64
2022/10/08 13:10:28;;;;;;;5.07;1.90;;;;;;;;;;4823028;29;20109;-65
2022/10/08 13:13:37;;;;;;;6.03;1.67;;;;;;;;;;4821912;29;20042;-64
2022/10/08 13:16:15;;;;;;;4.57;1.30;;;;;;;;;;4820521;29;20269;-64
2022/10/08 13:18:46;;;;;;;6.50;1.95;;;;;;;;;;4823568;29;20078;-63
2022/10/08 13:22:07;;;;;;;5.90;1.80;;;;;;;;;;4823780;29;20035;-65
2022/10/08 13:24:41;;;;;;;4.35;1.73;;;;;;;;;;4798037;29;20491;-66
2022/10/08 13:27:28;;;;;;;5.75;1.48;;;;;;;;;;4824114;29;20400;-64
2022/10/08 13:29:57;;;;;;;5.15;1.20;;;;;;;;;;4809067;29;20070;-65
2022/10/08 13:32:34;;;;;;;3.05;1.10;;;;;;;;;;4823639;29;20540;-66
2022/10/08 13:35:01;;;;;;;4.25;1.63;;;;;;;;;;4825131;29;20045;-66
2022/10/08 13:37:38;;;;;;;3.63;1.45;;;;;;;;;;4829654;29;20046;-66
2022/10/08 13:40:09;;;;;;;5.60;1.75;;;;;;;;;;4824536;29;20045;-66
2022/10/08 13:42:40;;;;;;;2.65;1.13;;;;;;;;;;4823888;29;20526;-67
2022/10/08 13:45:13;;;;;;;;;;;;;;;;;;4828231;29;20444;-64
2022/10/08 13:47:38;;;;;;;3.45;1.10;;;;;;;;;;4823165;29;19946;-66
2022/10/08 13:50:04;;;;;;;3.13;1.05;;;;;;;;;;4834891;29;20049;-66
2022/10/08 13:52:32;;;;;;;5.38;1.48;;;;;;;;;;4827126;29;20122;-66
2022/10/08 13:55:19;;;;;;;3.35;1.40;;;;;;;;;;4835890;29;20053;-66
2022/10/08 13:57:44;;;;;;;4.47;1.60;;;;;;;;;;4823940;29;20061;-65
2022/10/08 14:00:12;;;;;;;4.10;1.45;;;;;;;;;;4829309;29;20064;-65
2022/10/08 14:02:38;;;;;;;4.13;1.50;;;;;;;;;;4841440;29;20106;-67
2022/10/08 14:05:03;;;;;;;5.70;1.25;;;;;;;;;;4826852;29;20042;-65
2022/10/08 14:07:31;;;;;;;4.03;1.20;;;;;;;;;;4821957;29;20042;-66
2022/10/08 14:09:59;;;;;;;4.65;1.48;;;;;;;;;;4823735;29;20039;-65
2022/10/08 14:12:28;;;;;;;3.40;1.70;;;;;;;;;;4823636;29;20387;-64
2022/10/08 14:14:54;;;;;;;5.67;1.40;;;;;;;;;;4824018;29;20073;-66
2022/10/08 14:17:20;;;;;;;3.90;1.52;;;;;;;;;;4826302;29;20078;-66
2022/10/08 14:19:45;;;;;;;3.70;1.33;;;;;;;;;;4823051;29;20086;-67
2022/10/08 14:22:11;;;;;;;4.72;1.38;;;;;;;;;;4823228;29;20480;-65
2022/10/08 14:24:37;;;;;;;2.35;1.25;;;;;;;;;;4823454;29;20086;-64
2022/10/08 14:27:03;;;;;;;8.75;2.40;;;;;;;;;;4822618;29;20034;-65
2022/10/08 14:29:28;;;;;;;2.85;1.30;;;;;;;;;;4822431;29;20050;-66
2022/10/08 14:31:53;;;;;;;3.45;1.40;;;;;;;;;;4821606;29;20113;-66
2022/10/08 14:34:19;;;;;;;5.32;1.85;;;;;;;;;;4822645;29;20476;-66
2022/10/08 14:36:45;;;;;;;4.63;1.60;;;;;;;;;;4824400;29;20049;-65
2022/10/08 14:39:10;;;;;;;7.45;1.73;;;;;;;;;;4823433;29;20190;-65
2022/10/08 14:41:38;;;;;;;6.25;1.42;;;;;;;;;;4821181;29;20525;-65
2022/10/08 14:44:04;;;;;;;6.22;1.50;;;;;;;;;;4823857;29;20034;-65
2022/10/08 14:46:30;;;;;;;4.97;1.40;;;;;;;;;;4821341;29;20038;-65
2022/10/08 14:48:56;;;;;;;3.20;1.23;;;;;;;;;;4822930;29;20040;-65
2022/10/08 14:51:21;;;;;;;2.47;1.20;;;;;;;;;;4828132;29;20034;-65
2022/10/08 14:53:48;;;;;;;5.35;1.60;;;;;;;;;;4826946;29;20065;-65
2022/10/08 14:56:13;;;;;;;4.20;1.30;;;;;;;;;;4822681;29;20069;-65
2022/10/08 14:58:39;;;;;;;5.22;1.30;;;;;;;;;;4822946;29;20392;-65
2022/10/08 15:01:04;;;;;;;6.78;1.63;;;;;;;;;;4821183;29;20034;-65
2022/10/08 15:03:30;;;;;;;3.75;1.23;;;;;;;;;;4819752;29;20427;-66